Time;durP1;ratioP1;P1;durP2;ratioP2;P2;SDS_P1;SDS_P2;PMS_P1;PMS_P2;Temp;Humidity;BMP_temperature;BMP_pressure;BME280_temperature;BME280_humidity;BME280_pressure;Samples;Min_cycle;Max_cycle;Signal;HPM_P1;HPM_P2
2022/03/20 00:01:57;;;;;;;20.83;11.10;;;6.40;93.50;;;;;;5073482;28;20104;-80
2022/03/20 00:04:23;;;;;;;21.40;12.13;;;6.40;93.40;;;;;;5072972;28;20047;-81
2022/03/20 00:06:48;;;;;;;21.50;11.23;;;6.40;92.90;;;;;;5055386;28;20423;-78
2022/03/20 00:09:14;;;;;;;21.63;11.40;;;6.40;92.70;;;;;;5055074;28;20119;-79
2022/03/20 00:11:39;;;;;;;22.30;12.23;;;6.40;93.00;;;;;;5072907;28;20615;-79
2022/03/20 00:14:05;;;;;;;23.03;12.00;;;6.40;92.70;;;;;;5073265;28;20025;-79
2022/03/20 00:16:31;;;;;;;22.97;12.30;;;6.40;92.40;;;;;;5073034;28;20537;-80
2022/03/20 00:18:58;;;;;;;22.80;12.13;;;6.40;92.60;;;;;;5072698;28;20048;-80
2022/03/20 00:21:23;;;;;;;26.30;12.73;;;6.40;92.80;;;;;;5073000;28;20017;-81
2022/03/20 00:23:49;;;;;;;23.97;12.93;;;6.30;92.90;;;;;;5067917;28;20028;-80
2022/03/20 00:26:18;;;;;;;23.63;12.73;;;6.30;93.40;;;;;;5054981;28;20021;-78
2022/03/20 00:28:44;;;;;;;25.67;13.00;;;6.20;93.30;;;;;;5072289;28;20041;-79
2022/03/20 00:31:10;;;;;;;20.53;11.60;;;6.20;93.60;;;;;;5070446;28;20073;-79
2022/03/20 00:33:36;;;;;;;21.70;11.27;;;6.20;93.30;;;;;;5055508;28;20119;-77
2022/03/20 00:36:02;;;;;;;21.37;11.70;;;6.10;93.10;;;;;;5056034;28;20061;-80
2022/03/20 00:38:27;;;;;;;22.67;11.50;;;6.00;93.30;;;;;;5055429;28;20029;-80
2022/03/20 00:40:53;;;;;;;23.30;12.47;;;6.00;93.20;;;;;;5056179;28;20481;-80
2022/03/20 00:43:18;;;;;;;20.93;11.50;;;6.10;92.70;;;;;;5055968;28;20033;-79
2022/03/20 00:45:44;;;;;;;20.70;11.43;;;6.00;93.00;;;;;;5055103;28;20061;-79
2022/03/20 00:48:10;;;;;;;24.77;11.80;;;6.00;93.20;;;;;;5073652;28;20112;-79
2022/03/20 00:50:36;;;;;;;23.40;12.20;;;5.90;93.30;;;;;;5057643;28;20056;-80
2022/03/20 00:53:02;;;;;;;22.70;12.13;;;5.90;93.10;;;;;;5059732;28;20031;-79
2022/03/20 00:55:29;;;;;;;22.93;12.27;;;5.90;93.20;;;;;;5076748;28;20107;-80
2022/03/20 00:57:55;;;;;;;21.27;11.50;;;5.90;92.90;;;;;;5059695;28;20024;-80
2022/03/20 01:00:20;;;;;;;22.33;12.30;;;5.90;92.70;;;;;;5077392;28;20070;-79
2022/03/20 01:02:46;;;;;;;19.87;11.33;;;5.80;92.80;;;;;;5059074;28;20024;-80
2022/03/20 01:05:14;;;;;;;19.67;10.97;;;5.70;92.80;;;;;;5077272;28;20031;-80
2022/03/20 01:07:40;;;;;;;22.03;10.87;;;5.70;92.80;;;;;;5058830;28;20037;-79
2022/03/20 01:10:07;;;;;;;19.00;10.80;;;5.80;92.60;;;;;;5077281;28;20021;-80
2022/03/20 01:12:34;;;;;;;19.93;10.87;;;5.80;92.10;;;;;;5058758;28;20036;-79
2022/03/20 01:15:00;;;;;;;22.97;11.20;;;5.70;92.40;;;;;;5059172;28;20124;-79
2022/03/20 01:17:26;;;;;;;18.23;10.33;;;5.70;92.40;;;;;;5076614;28;20032;-80
2022/03/20 01:19:52;;;;;;;20.93;10.77;;;5.70;92.10;;;;;;5077016;28;20052;-79
2022/03/20 01:22:18;;;;;;;20.37;10.80;;;5.70;92.40;;;;;;5076863;28;20025;-79
2022/03/20 01:24:43;;;;;;;24.47;12.37;;;5.70;92.60;;;;;;5058797;28;20241;-79
2022/03/20 01:27:09;;;;;;;23.70;11.87;;;5.60;92.30;;;;;;5076889;28;20555;-79
2022/03/20 01:29:35;;;;;;;20.57;10.83;;;5.60;92.40;;;;;;5058684;28;20058;-78
2022/03/20 01:32:02;;;;;;;20.67;10.60;;;5.60;92.60;;;;;;5076679;28;20028;-78
2022/03/20 01:34:27;;;;;;;21.23;10.73;;;5.50;92.70;;;;;;5058819;28;20036;-80
2022/03/20 01:36:53;;;;;;;23.93;11.20;;;5.40;92.40;;;;;;5076776;28;20191;-79
2022/03/20 01:39:20;;;;;;;22.00;11.43;;;5.40;92.00;;;;;;5058685;28;20487;-79
2022/03/20 01:41:47;;;;;;;22.03;11.83;;;5.40;92.40;;;;;;5076124;28;20377;-79
2022/03/20 01:44:13;;;;;;;18.00;10.60;;;5.40;91.90;;;;;;5059071;28;20123;-80
2022/03/20 01:46:39;;;;;;;23.07;11.37;;;5.40;92.20;;;;;;5058394;28;20035;-79
2022/03/20 01:49:05;;;;;;;21.83;11.13;;;5.30;92.10;;;;;;5058957;28;20024;-79
2022/03/20 01:54:16;;;;;;;22.17;11.00;;;5.30;92.00;;;;;;5076398;28;20067;-80
2022/03/20 01:56:51;;;;;;;22.27;10.83;;;5.20;92.00;;;;;;5076102;28;20033;-80
2022/03/20 01:59:18;;;;;;;21.03;11.83;;;5.20;92.00;;;;;;5076417;28;20032;-80
2022/03/20 02:01:44;;;;;;;22.10;11.47;;;5.20;91.40;;;;;;5057580;28;20021;-78
2022/03/20 02:04:16;;;;;;;22.07;10.83;;;5.20;91.10;;;;;;5076299;28;20032;-78
2022/03/20 02:06:45;;;;;;;20.70;10.80;;;5.20;90.70;;;;;;5075506;28;20154;-79
2022/03/20 02:09:11;;;;;;;22.67;11.27;;;5.20;90.40;;;;;;5075843;28;20497;-79
2022/03/20 02:11:37;;;;;;;22.57;11.93;;;5.00;90.80;;;;;;5057473;28;20393;-78
2022/03/20 02:14:04;;;;;;;23.27;11.30;;;5.00;91.40;;;;;;5058065;28;20115;-79
2022/03/20 02:16:30;;;;;;;22.20;11.70;;;5.10;92.10;;;;;;5057661;28;20389;-79
2022/03/20 02:18:56;;;;;;;23.10;11.03;;;5.20;91.70;;;;;;5057587;28;20044;-81
2022/03/20 02:21:44;;;;;;;21.97;10.70;;;5.20;91.80;;;;;;5075855;28;20438;-81
2022/03/20 02:24:28;;;;;;;19.50;10.63;;;5.10;92.40;;;;;;5058474;28;20090;-78
2022/03/20 02:27:18;;;;;;;23.67;11.73;;;5.10;91.80;;;;;;5075425;28;20021;-78
2022/03/20 02:30:15;;;;;;;22.63;11.47;;;5.10;92.30;;;;;;5074983;28;20532;-78
2022/03/20 02:32:42;;;;;;;22.97;11.33;;;5.10;92.70;;;;;;5061906;28;20032;-80
2022/03/20 02:35:14;;;;;;;21.70;11.83;;;5.30;92.30;;;;;;5058106;28;20031;-78
2022/03/20 02:37:42;;;;;;;25.25;11.70;;;5.30;91.50;;;;;;5057520;28;20024;-79
2022/03/20 02:40:09;;;;;;;19.73;10.97;;;5.40;91.90;;;;;;5057596;28;20051;-79
2022/03/20 02:42:38;;;;;;;25.93;11.23;;;5.40;91.40;;;;;;5057223;28;20028;-79
2022/03/20 02:45:09;;;;;;;23.53;10.83;;;5.40;91.20;;;;;;5075438;28;20491;-78
2022/03/20 02:47:38;;;;;;;20.02;11.05;;;5.40;91.50;;;;;;5075103;28;20028;-79
2022/03/20 02:50:24;;;;;;;19.40;11.00;;;5.40;91.40;;;;;;5075351;28;20120;-78
2022/03/20 02:52:56;;;;;;;22.30;10.83;;;5.40;91.50;;;;;;5074712;28;20060;-79
2022/03/20 02:55:32;;;;;;;23.15;11.55;;;5.50;91.60;;;;;;5075341;28;20043;-78
2022/03/20 02:58:01;;;;;;;21.47;11.60;;;5.50;91.20;;;;;;5057346;28;20056;-79
2022/03/20 03:00:28;;;;;;;19.17;10.87;;;5.60;91.00;;;;;;5057471;28;20059;-79
2022/03/20 03:02:56;;;;;;;18.77;10.00;;;5.60;90.50;;;;;;5074313;28;20064;-80
2022/03/20 03:05:24;;;;;;;19.53;10.57;;;5.60;89.90;;;;;;5057401;28;20050;-80
2022/03/20 03:10:55;;;;;;;21.07;10.80;;;5.60;89.90;;;;;;5072587;28;20094;-81
2022/03/20 03:13:22;;;;;;;22.80;11.57;;;5.50;87.80;;;;;;5057748;28;20106;-80
2022/03/20 03:15:47;;;;;;;23.93;10.90;;;5.60;87.10;;;;;;5055257;28;20031;-80
2022/03/20 03:18:13;;;;;;;21.30;11.30;;;5.60;88.30;;;;;;5071644;28;20048;-80
2022/03/20 03:20:40;;;;;;;19.50;10.83;;;5.60;88.50;;;;;;5055313;28;20032;-81
2022/03/20 03:23:05;;;;;;;19.47;10.50;;;5.60;88.70;;;;;;5057008;28;20027;-81
2022/03/20 03:25:35;;;;;;;21.47;11.57;;;5.60;88.70;;;;;;5056613;28;20026;-82
2022/03/20 03:28:00;;;;;;;17.97;10.13;;;5.60;87.40;;;;;;5056958;28;20025;-81
2022/03/20 03:30:27;;;;;;;18.37;10.53;;;5.60;88.70;;;;;;5057003;28;20036;-81
2022/03/20 03:32:52;;;;;;;20.00;11.13;;;5.60;88.20;;;;;;5056230;28;20484;-81
2022/03/20 03:38:03;;;;;;;25.83;11.30;;;5.60;88.30;;;;;;5074293;28;20035;-79
2022/03/20 03:40:30;;;;;;;20.00;10.70;;;5.60;87.70;;;;;;5056645;28;20033;-79
2022/03/20 03:43:00;;;;;;;19.13;10.90;;;5.60;87.20;;;;;;5056314;28;20024;-79
2022/03/20 03:45:26;;;;;;;22.37;11.13;;;5.70;87.20;;;;;;5074239;28;20032;-79
2022/03/20 03:47:52;;;;;;;18.97;10.00;;;5.60;87.20;;;;;;5073854;28;20040;-79
2022/03/20 03:50:19;;;;;;;19.57;10.83;;;5.60;86.40;;;;;;5074195;28;20457;-79
2022/03/20 03:52:46;;;;;;;21.33;10.90;;;5.60;86.70;;;;;;5055976;28;20070;-79
2022/03/20 03:55:12;;;;;;;17.70;10.20;;;5.70;86.90;;;;;;5056690;28;20454;-80
2022/03/20 03:57:43;;;;;;;17.40;10.20;;;5.70;86.30;;;;;;5055760;28;20094;-80
2022/03/20 04:00:10;;;;;;;20.10;10.48;;;5.80;84.80;;;;;;5074016;28;20076;-79
2022/03/20 04:02:36;;;;;;;23.20;10.33;;;5.70;84.60;;;;;;5055698;28;20075;-80
2022/03/20 04:05:01;;;;;;;21.97;10.77;;;5.80;84.50;;;;;;5056179;28;20370;-79
2022/03/20 04:07:27;;;;;;;29.33;11.50;;;5.80;84.10;;;;;;5056088;28;20020;-79
2022/03/20 04:09:52;;;;;;;21.20;10.40;;;5.80;84.70;;;;;;5055485;28;20032;-78
2022/03/20 04:12:18;;;;;;;24.03;11.00;;;5.80;84.00;;;;;;5073797;28;20025;-79
2022/03/20 04:14:45;;;;;;;22.30;10.73;;;5.80;84.20;;;;;;5055587;28;20474;-80
2022/03/20 04:17:10;;;;;;;21.87;10.67;;;5.80;83.60;;;;;;5073974;28;20453;-80
2022/03/20 04:19:36;;;;;;;17.50;9.57;;;5.80;84.20;;;;;;5073141;28;20048;-80
2022/03/20 04:22:03;;;;;;;19.07;10.53;;;5.90;84.60;;;;;;5055962;28;20043;-79
2022/03/20 04:24:29;;;;;;;19.87;11.13;;;5.90;84.20;;;;;;5073379;28;20024;-79
2022/03/20 04:26:55;;;;;;;20.73;10.57;;;5.90;84.60;;;;;;5055275;28;20039;-79
2022/03/20 04:29:21;;;;;;;19.23;10.23;;;5.90;84.40;;;;;;5073873;28;20031;-79
2022/03/20 04:31:51;;;;;;;19.00;11.07;;;5.90;83.40;;;;;;5055411;28;20028;-79
2022/03/20 04:34:17;;;;;;;19.50;10.03;;;5.90;84.20;;;;;;5055595;28;20028;-79
2022/03/20 04:36:43;;;;;;;19.50;10.73;;;5.90;84.00;;;;;;5072854;28;20083;-80
2022/03/20 04:39:09;;;;;;;19.30;10.37;;;5.80;83.70;;;;;;5055556;28;20034;-79
2022/03/20 04:41:35;;;;;;;17.30;10.53;;;5.90;83.70;;;;;;5072919;28;20051;-79
2022/03/20 04:44:01;;;;;;;19.87;10.57;;;5.90;84.30;;;;;;5055259;28;20064;-79
2022/03/20 04:46:27;;;;;;;20.77;10.30;;;5.80;83.60;;;;;;5055097;28;20032;-79
2022/03/20 04:59:50;;;;;;;16.90;9.87;;;5.90;84.50;;;;;;5072574;28;20039;-79
2022/03/20 05:02:16;;;;;;;20.93;10.53;;;5.90;84.30;;;;;;5073326;28;20137;-79
2022/03/20 05:04:42;;;;;;;21.57;10.67;;;5.90;85.10;;;;;;5072977;28;20032;-79
2022/03/20 05:07:08;;;;;;;22.50;10.30;;;5.90;84.80;;;;;;5055906;28;20024;-79
2022/03/20 05:15:07;;;;;;;18.10;10.07;;;6.00;87.90;;;;;;5073674;28;20043;-80
2022/03/20 05:17:32;;;;;;;18.67;10.63;;;6.00;88.00;;;;;;5055698;28;20029;-80
2022/03/20 05:19:58;;;;;;;18.50;10.57;;;5.90;87.60;;;;;;5055041;28;20052;-80
2022/03/20 05:22:24;;;;;;;20.83;10.33;;;6.00;87.50;;;;;;5055554;28;20024;-80
2022/03/20 05:24:49;;;;;;;22.67;11.40;;;5.90;86.00;;;;;;5072993;28;20032;-80
2022/03/20 05:27:15;;;;;;;21.63;10.00;;;5.90;86.20;;;;;;5055489;28;20024;-80
2022/03/20 05:29:41;;;;;;;19.57;9.97;;;5.90;86.10;;;;;;5072832;28;20064;-80
2022/03/20 05:32:08;;;;;;;18.80;10.10;;;5.90;86.10;;;;;;5055872;28;20052;-80
2022/03/20 05:34:35;;;;;;;23.13;10.80;;;5.90;86.60;;;;;;5055342;28;20074;-79
2022/03/20 05:37:01;;;;;;;22.87;11.63;;;5.90;86.80;;;;;;5075471;28;20025;-79
2022/03/20 05:39:27;;;;;;;19.43;11.03;;;5.90;87.20;;;;;;5058660;28;20086;-79
2022/03/20 05:41:53;;;;;;;19.97;10.77;;;5.90;87.00;;;;;;5076186;28;20033;-78
2022/03/20 05:44:22;;;;;;;19.73;10.17;;;5.90;87.30;;;;;;5076692;28;20442;-79
2022/03/20 05:46:49;;;;;;;20.93;10.60;;;5.90;87.80;;;;;;5076312;28;20020;-79
2022/03/20 05:49:15;;;;;;;20.10;10.50;;;5.90;88.40;;;;;;5058672;28;20096;-79
2022/03/20 05:51:42;;;;;;;22.60;11.50;;;5.80;87.40;;;;;;5075876;28;20021;-79
2022/03/20 05:54:08;;;;;;;22.73;11.17;;;5.80;87.80;;;;;;5076367;28;20020;-78
2022/03/20 05:59:18;;;;;;;22.83;11.03;;;5.80;89.20;;;;;;5076436;28;20067;-79
2022/03/20 06:01:44;;;;;;;21.13;10.40;;;5.80;90.00;;;;;;5058165;28;20024;-80
2022/03/20 06:04:10;;;;;;;27.07;12.43;;;5.80;90.20;;;;;;5076276;28;20020;-79
2022/03/20 06:06:37;;;;;;;18.80;10.77;;;5.80;90.00;;;;;;5058369;28;20033;-78
2022/03/20 06:09:06;;;;;;;25.53;11.50;;;5.80;90.10;;;;;;5057792;28;20032;-79
2022/03/20 06:11:34;;;;;;;20.13;11.53;;;5.70;90.10;;;;;;5075530;28;20036;-79
2022/03/20 06:14:03;;;;;;;22.30;11.30;;;5.80;90.60;;;;;;5075687;28;20032;-79
2022/03/20 06:16:29;;;;;;;22.33;11.17;;;5.70;90.70;;;;;;5058172;28;20133;-78
2022/03/20 06:18:55;;;;;;;24.10;11.27;;;5.70;90.60;;;;;;5057326;28;20044;-79
2022/03/20 06:21:22;;;;;;;22.10;10.97;;;5.70;91.00;;;;;;5058082;28;20025;-78
2022/03/20 06:23:48;;;;;;;22.47;11.47;;;5.70;90.70;;;;;;5057677;28;20465;-80
2022/03/20 06:26:14;;;;;;;23.87;11.60;;;5.70;91.00;;;;;;5058128;28;20028;-80
2022/03/20 06:28:40;;;;;;;25.50;11.60;;;5.80;91.40;;;;;;5058232;28;20028;-79
2022/03/20 06:31:10;;;;;;;24.53;11.40;;;5.80;91.20;;;;;;5075561;28;20108;-80
2022/03/20 06:33:37;;;;;;;23.07;11.23;;;5.90;91.60;;;;;;5075959;28;20326;-80
2022/03/20 06:36:04;;;;;;;21.03;11.10;;;6.00;92.00;;;;;;5057598;28;20036;-79
2022/03/20 06:38:30;;;;;;;22.90;11.57;;;6.10;90.20;;;;;;5075284;28;20489;-78
2022/03/20 06:40:56;;;;;;;23.73;12.03;;;6.20;91.10;;;;;;5056727;28;20033;-78
2022/03/20 06:43:23;;;;;;;23.50;11.67;;;6.20;91.50;;;;;;5075505;28;20031;-78
2022/03/20 06:45:50;;;;;;;19.90;11.33;;;6.30;91.50;;;;;;5057212;28;20085;-78
2022/03/20 06:48:16;;;;;;;22.10;11.73;;;6.30;91.80;;;;;;5055808;28;20465;-78
2022/03/20 06:50:42;;;;;;;24.40;11.77;;;6.30;92.10;;;;;;5057426;28;20209;-78
2022/03/20 06:53:07;;;;;;;21.83;11.40;;;6.40;92.20;;;;;;5056838;28;20025;-78
2022/03/20 06:55:33;;;;;;;24.13;12.10;;;6.50;91.80;;;;;;5057233;28;20021;-78
2022/03/20 06:57:59;;;;;;;24.20;11.80;;;6.50;92.30;;;;;;5056783;28;20390;-78
2022/03/20 07:00:31;;;;;;;24.47;12.40;;;6.50;92.10;;;;;;5074809;28;20044;-78
2022/03/20 07:03:01;;;;;;;24.38;12.23;;;6.60;92.40;;;;;;5074557;28;20025;-78
2022/03/20 07:05:28;;;;;;;22.30;12.13;;;6.70;92.10;;;;;;5057244;28;20042;-79
2022/03/20 07:07:54;;;;;;;22.63;12.27;;;6.80;91.80;;;;;;5057180;28;20028;-79
2022/03/20 07:10:24;;;;;;;22.43;12.17;;;6.90;91.50;;;;;;5057466;28;20529;-79
2022/03/20 07:12:51;;;;;;;23.73;12.30;;;6.90;91.80;;;;;;5056903;28;20028;-79
2022/03/20 07:15:18;;;;;;;25.77;12.70;;;7.00;92.10;;;;;;5057370;28;20035;-80
2022/03/20 07:17:46;;;;;;;21.23;12.23;;;6.90;91.40;;;;;;5075119;28;20025;-79
2022/03/20 07:20:12;;;;;;;25.53;12.83;;;7.00;91.90;;;;;;5053929;28;20040;-79
2022/03/20 07:22:38;;;;;;;24.00;12.77;;;7.20;90.90;;;;;;5055137;28;20025;-79
2022/03/20 07:30:33;;;;;;;28.45;13.10;;;7.40;90.70;;;;;;5054314;28;20056;-79
2022/03/20 07:32:58;;;;;;;23.50;12.18;;;7.60;90.70;;;;;;5054073;28;20466;-79
2022/03/20 07:35:25;;;;;;;22.07;12.33;;;7.60;90.10;;;;;;5053158;28;20115;-80
2022/03/20 07:37:51;;;;;;;26.58;13.98;;;7.60;90.60;;;;;;5053131;28;20374;-80
2022/03/20 07:40:17;;;;;;;24.27;11.95;;;7.70;90.10;;;;;;5053379;28;20059;-79
2022/03/20 07:42:43;;;;;;;23.92;12.38;;;7.80;89.80;;;;;;5053550;28;20071;-79
2022/03/20 07:45:09;;;;;;;24.58;12.68;;;7.90;89.60;;;;;;5052925;28;20462;-79
2022/03/20 07:47:35;;;;;;;26.58;13.18;;;8.00;89.30;;;;;;5053259;28;20074;-79
2022/03/20 07:50:01;;;;;;;26.40;12.82;;;8.00;88.30;;;;;;5052458;28;20029;-79
2022/03/20 07:52:27;;;;;;;22.63;12.13;;;8.00;88.80;;;;;;5054315;28;20036;-78
2022/03/20 07:54:53;;;;;;;25.85;13.38;;;8.10;88.30;;;;;;5052564;28;20033;-79
2022/03/20 07:57:19;;;;;;;23.85;12.60;;;8.20;85.90;;;;;;5054029;28;20149;-78
2022/03/20 07:59:44;;;;;;;25.33;13.07;;;8.20;87.00;;;;;;5052052;28;20167;-79
2022/03/20 08:02:11;;;;;;;22.85;12.20;;;8.10;87.00;;;;;;5053229;28;20473;-79
2022/03/20 08:04:37;;;;;;;26.52;13.50;;;8.10;88.70;;;;;;5052546;28;20021;-79
2022/03/20 08:07:04;;;;;;;24.33;12.77;;;8.20;88.90;;;;;;5052103;28;20031;-78
2022/03/20 08:09:30;;;;;;;27.08;14.13;;;8.20;89.30;;;;;;5049748;28;20043;-78
2022/03/20 08:11:56;;;;;;;24.45;12.90;;;8.30;89.90;;;;;;5051180;28;20546;-79
2022/03/20 08:14:23;;;;;;;25.10;13.88;;;8.40;89.20;;;;;;5052437;28;20028;-78
2022/03/20 08:16:49;;;;;;;29.58;14.30;;;8.40;91.10;;;;;;5052023;28;20051;-79
2022/03/20 08:19:16;;;;;;;24.98;13.40;;;8.50;91.70;;;;;;5052443;28;20045;-80
2022/03/20 08:21:43;;;;;;;25.58;13.93;;;8.50;91.10;;;;;;5053662;28;20075;-80
2022/03/20 08:24:09;;;;;;;26.02;13.25;;;8.50;91.10;;;;;;5052325;28;20335;-80
2022/03/20 08:26:35;;;;;;;24.52;13.45;;;8.70;91.50;;;;;;5052677;28;20025;-80
2022/03/20 08:29:02;;;;;;;29.27;14.27;;;8.80;91.40;;;;;;5049180;28;20155;-79
2022/03/20 08:31:29;;;;;;;27.85;14.30;;;8.90;89.20;;;;;;5050932;28;20157;-80
2022/03/20 08:33:57;;;;;;;24.25;13.00;;;8.90;87.60;;;;;;5049618;28;20074;-80
2022/03/20 08:36:22;;;;;;;27.80;14.45;;;9.00;89.90;;;;;;5054396;28;20055;-80
2022/03/20 08:38:48;;;;;;;27.02;13.55;;;9.10;90.10;;;;;;5049947;28;20442;-79
2022/03/20 08:41:14;;;;;;;32.30;14.15;;;9.10;89.50;;;;;;5051276;28;20476;-80
2022/03/20 08:43:40;;;;;;;25.38;13.75;;;9.20;88.60;;;;;;5052841;28;20033;-79
2022/03/20 08:46:05;;;;;;;26.35;13.45;;;9.10;90.20;;;;;;5046673;28;20029;-79
2022/03/20 08:48:31;;;;;;;28.00;13.93;;;9.20;89.20;;;;;;5050685;28;20548;-78
2022/03/20 08:50:57;;;;;;;28.88;14.02;;;9.20;89.20;;;;;;5049535;28;20090;-79
2022/03/20 08:53:23;;;;;;;28.13;14.05;;;9.20;87.60;;;;;;5053265;28;20367;-79
2022/03/20 08:55:49;;;;;;;24.33;13.68;;;9.30;84.20;;;;;;5049274;28;20028;-79
2022/03/20 08:58:15;;;;;;;26.27;14.30;;;9.30;84.20;;;;;;5048398;28;20029;-80
2022/03/20 09:00:42;;;;;;;26.65;13.88;;;9.20;86.30;;;;;;5049937;28;20508;-79
2022/03/20 09:03:10;;;;;;;24.50;13.40;;;9.40;85.80;;;;;;5050747;28;20029;-79
2022/03/20 09:05:37;;;;;;;28.90;14.60;;;9.40;83.60;;;;;;5050249;28;20029;-79
2022/03/20 09:08:03;;;;;;;28.00;13.75;;;9.40;82.20;;;;;;5048806;28;20111;-80
2022/03/20 09:10:29;;;;;;;26.63;13.68;;;9.50;80.60;;;;;;5048488;28;20474;-79
2022/03/20 09:12:57;;;;;;;25.30;13.43;;;9.60;79.40;;;;;;5052927;28;20120;-79
2022/03/20 09:15:24;;;;;;;24.33;13.27;;;9.50;79.30;;;;;;5056472;28;20017;-78
2022/03/20 09:20:38;;;;;;;26.05;13.48;;;9.70;78.10;;;;;;5076207;28;20035;-79
2022/03/20 09:23:08;;;;;;;27.25;14.55;;;9.80;77.90;;;;;;5056727;28;20021;-79
2022/03/20 09:25:34;;;;;;;26.25;14.65;;;9.80;78.50;;;;;;5076382;28;20407;-79
2022/03/20 09:28:01;;;;;;;27.85;14.18;;;9.90;77.90;;;;;;5057760;28;20114;-79
2022/03/20 09:30:26;;;;;;;26.98;14.32;;;9.90;77.90;;;;;;5087485;28;20028;-79
2022/03/20 09:32:52;;;;;;;28.35;13.70;;;9.90;77.90;;;;;;5066528;28;20175;-79
2022/03/20 09:35:18;;;;;;;25.77;13.10;;;9.90;78.00;;;;;;5085041;28;20041;-79
2022/03/20 09:37:45;;;;;;;23.65;13.52;;;9.80;78.50;;;;;;5057529;28;20428;-78
2022/03/20 09:40:11;;;;;;;26.13;12.85;;;9.80;78.70;;;;;;5062411;28;20048;-78
2022/03/20 09:42:38;;;;;;;26.58;13.90;;;9.80;79.60;;;;;;5076682;28;20032;-80
2022/03/20 09:45:05;;;;;;;28.88;14.20;;;9.80;78.60;;;;;;5071484;28;20047;-81
2022/03/20 09:47:36;;;;;;;24.83;12.75;;;9.80;78.60;;;;;;5060975;28;20039;-80
2022/03/20 09:50:02;;;;;;;26.80;14.23;;;9.80;79.30;;;;;;5065258;28;20063;-81
2022/03/20 09:52:29;;;;;;;21.98;13.30;;;9.90;78.60;;;;;;5068792;28;20520;-80
2022/03/20 09:54:57;;;;;;;25.63;12.77;;;9.90;79.60;;;;;;5077072;28;20017;-80
2022/03/20 09:57:28;;;;;;;26.65;13.57;;;9.90;78.70;;;;;;5089835;28;20094;-80
2022/03/20 09:59:55;;;;;;;60.83;30.77;;;9.90;77.60;;;;;;5063380;28;20032;-81
2022/03/20 10:02:24;;;;;;;34.42;17.52;;;9.90;77.60;;;;;;5063221;28;20048;-81
2022/03/20 10:05:05;;;;;;;27.98;14.55;;;9.90;78.70;;;;;;5071994;28;20433;-81
2022/03/20 10:07:39;;;;;;;26.42;13.25;;;9.90;78.10;;;;;;5035759;28;20029;-81
2022/03/20 10:10:25;;;;;;;25.88;13.15;;;10.00;78.70;;;;;;5071821;28;20097;-81
2022/03/20 10:12:54;;;;;;;26.90;13.73;;;10.10;79.60;;;;;;5076730;28;20051;-81
2022/03/20 10:15:37;;;;;;;25.15;13.50;;;10.20;79.40;;;;;;5059390;28;20024;-81
2022/03/20 10:18:17;;;;;;;28.10;13.23;;;10.20;79.00;;;;;;5074765;28;20032;-81
2022/03/20 10:20:55;;;;;;;25.35;14.02;;;10.30;78.70;;;;;;5078286;28;20083;-81
2022/03/20 10:23:33;;;;;;;22.52;12.52;;;10.40;78.60;;;;;;5043445;28;20025;-81
2022/03/20 10:26:03;;;;;;;26.73;13.55;;;10.50;78.40;;;;;;5054770;28;20029;-81
2022/03/20 10:28:46;;;;;;;28.10;13.75;;;10.50;79.10;;;;;;5055256;28;20031;-81
2022/03/20 10:31:18;;;;;;;25.48;14.23;;;10.60;83.40;;;;;;5071623;28;20119;-81
2022/03/20 10:33:58;;;;;;;26.80;13.18;;;10.70;83.00;;;;;;5080257;28;20016;-81
2022/03/20 10:36:24;;;;;;;27.70;13.52;;;10.80;82.20;;;;;;5080803;28;20029;-80
2022/03/20 10:38:50;;;;;;;26.83;13.60;;;10.90;81.50;;;;;;5071331;28;20513;-81
2022/03/20 10:41:20;;;;;;;22.88;13.20;;;11.00;80.30;;;;;;5057926;28;20024;-80
2022/03/20 10:43:47;;;;;;;22.48;12.57;;;11.00;80.70;;;;;;5085513;28;20496;-81
2022/03/20 10:46:32;;;;;;;28.20;13.45;;;11.10;80.70;;;;;;5065668;28;20372;-81
2022/03/20 10:49:04;;;;;;;24.60;13.48;;;11.10;80.90;;;;;;5057629;28;20115;-81
2022/03/20 10:51:37;;;;;;;24.05;13.52;;;11.20;80.00;;;;;;5088258;28;20025;-81
2022/03/20 10:54:10;;;;;;;22.88;12.50;;;11.30;78.70;;;;;;5064091;28;20092;-81
2022/03/20 10:56:57;;;;;;;23.75;13.65;;;11.30;79.40;;;;;;5078351;28;20024;-81
2022/03/20 10:59:25;;;;;;;21.90;13.07;;;11.40;77.80;;;;;;5071605;28;20028;-81
2022/03/20 11:01:51;;;;;;;23.45;12.57;;;11.50;77.70;;;;;;5066358;28;20028;-81
2022/03/20 11:04:19;;;;;;;25.42;12.88;;;11.50;77.30;;;;;;5065680;28;20016;-81
2022/03/20 11:06:46;;;;;;;23.55;13.13;;;11.50;78.70;;;;;;5058762;28;20024;-81
2022/03/20 11:09:13;;;;;;;23.08;12.63;;;11.60;78.20;;;;;;5070500;28;20074;-80
2022/03/20 11:11:47;;;;;;;25.15;13.82;;;11.70;77.60;;;;;;5060569;28;20380;-81
2022/03/20 11:14:23;;;;;;;28.02;13.63;;;11.90;80.00;;;;;;5063874;28;20158;-80
2022/03/20 11:16:51;;;;;;;24.13;13.13;;;11.90;79.70;;;;;;5054526;28;20352;-80
2022/03/20 11:19:25;;;;;;;25.00;13.80;;;11.90;79.70;;;;;;5072951;28;20473;-81
2022/03/20 11:21:54;;;;;;;25.45;13.50;;;11.90;80.30;;;;;;5056073;28;20464;-80
2022/03/20 11:24:20;;;;;;;26.10;13.55;;;11.80;80.00;;;;;;5055601;28;20070;-80
2022/03/20 11:26:50;;;;;;;24.23;13.20;;;11.70;79.60;;;;;;5057724;28;20158;-80
2022/03/20 11:29:19;;;;;;;26.85;14.05;;;11.70;80.10;;;;;;5060735;28;20303;-80
2022/03/20 11:31:45;;;;;;;27.38;14.25;;;11.70;81.60;;;;;;5055662;28;20115;-80
2022/03/20 11:34:12;;;;;;;30.90;13.88;;;11.80;82.50;;;;;;5054684;28;20472;-80
2022/03/20 11:36:59;;;;;;;24.63;13.55;;;11.80;80.30;;;;;;5076029;28;20029;-80
2022/03/20 11:39:25;;;;;;;24.58;13.80;;;11.90;83.10;;;;;;5070319;28;20017;-80
2022/03/20 11:42:19;;;;;;;26.15;13.07;;;12.00;83.40;;;;;;5072676;28;20031;-80
2022/03/20 11:44:52;;;;;;;24.60;13.00;;;12.20;82.20;;;;;;5054006;28;20028;-80
2022/03/20 11:47:22;;;;;;;24.63;11.95;;;12.30;81.80;;;;;;5073320;28;20103;-81
2022/03/20 11:50:09;;;;;;;23.73;13.00;;;12.50;81.50;;;;;;5055949;28;20069;-80
2022/03/20 11:52:49;;;;;;;30.30;13.65;;;12.70;81.10;;;;;;5073667;28;20101;-81
2022/03/20 11:55:37;;;;;;;25.35;12.90;;;12.70;82.40;;;;;;5051428;28;20020;-81
2022/03/20 11:58:17;;;;;;;23.08;13.45;;;12.80;83.10;;;;;;5053945;28;20036;-81
2022/03/20 12:00:44;;;;;;;22.63;11.82;;;12.90;84.30;;;;;;5069603;28;20040;-81
2022/03/20 12:03:13;;;;;;;21.05;11.75;;;12.90;83.70;;;;;;5068085;28;20026;-81
2022/03/20 12:05:41;;;;;;;21.92;12.32;;;12.90;83.70;;;;;;5056054;28;20048;-80
2022/03/20 12:08:35;;;;;;;20.70;11.50;;;12.90;85.50;;;;;;5055852;28;20044;-81
2022/03/20 12:11:42;;;;;;;22.55;12.00;;;13.00;87.20;;;;;;5067438;28;20070;-82
2022/03/20 12:14:30;;;;;;;21.13;11.52;;;13.10;89.00;;;;;;5043452;28;20027;-81
2022/03/20 12:16:58;;;;;;;18.33;10.65;;;13.20;86.50;;;;;;5083835;28;20103;-82
2022/03/20 12:19:48;;;;;;;20.98;11.23;;;13.30;88.50;;;;;;5074698;28;20768;-81
2022/03/20 12:22:19;;;;;;;19.70;10.93;;;13.60;91.90;;;;;;5032928;28;20025;-81
2022/03/20 12:24:54;;;;;;;25.38;12.13;;;13.80;88.20;;;;;;5070861;28;20020;-81
2022/03/20 12:27:22;;;;;;;19.45;11.30;;;14.00;84.90;;;;;;5075488;28;20131;-81
2022/03/20 12:30:02;;;;;;;25.42;11.48;;;14.20;81.20;;;;;;5052867;28;20032;-81
2022/03/20 12:32:47;;;;;;;19.35;10.95;;;14.30;79.10;;;;;;5079014;28;20012;-81
2022/03/20 12:35:26;;;;;;;22.35;11.65;;;14.40;79.50;;;;;;5053937;28;20119;-81
2022/03/20 12:37:55;;;;;;;20.73;10.70;;;14.60;77.20;;;;;;5069345;28;20093;-82
2022/03/20 12:40:22;;;;;;;20.33;10.70;;;14.90;78.60;;;;;;5076813;28;20036;-82
2022/03/20 12:43:13;;;;;;;20.10;10.05;;;15.10;77.70;;;;;;5061741;28;20376;-81
2022/03/20 12:45:50;;;;;;;18.05;9.45;;;15.40;76.30;;;;;;5069285;28;20049;-82
2022/03/20 12:48:19;;;;;;;18.77;9.63;;;15.60;73.00;;;;;;5076686;28;20167;-82
2022/03/20 12:50:46;;;;;;;19.10;9.57;;;15.80;72.40;;;;;;5062514;28;20484;-81
2022/03/20 12:53:17;;;;;;;17.30;9.13;;;15.90;68.80;;;;;;5052422;28;20029;-82
2022/03/20 12:55:48;;;;;;;18.55;9.35;;;16.10;68.10;;;;;;5069445;28;20768;-82
2022/03/20 12:58:17;;;;;;;19.20;10.00;;;16.40;69.40;;;;;;5076041;28;20017;-82
2022/03/20 13:00:43;;;;;;;20.35;9.98;;;16.70;67.40;;;;;;5062402;28;20493;-82
2022/03/20 13:03:11;;;;;;;21.17;9.50;;;16.80;65.70;;;;;;5084398;28;20020;-82
2022/03/20 13:05:38;;;;;;;15.00;8.65;;;17.00;65.50;;;;;;5070723;28;20034;-82
2022/03/20 13:08:09;;;;;;;13.68;8.48;;;17.30;66.00;;;;;;5057377;28;20039;-82
2022/03/20 13:10:40;;;;;;;17.13;8.73;;;17.70;59.90;;;;;;5075005;28;20070;-82
2022/03/20 13:13:07;;;;;;;12.48;7.93;;;18.10;59.00;;;;;;5072829;28;20737;-82
2022/03/20 13:15:34;;;;;;;16.50;8.10;;;18.70;58.30;;;;;;5055184;28;20032;-82
2022/03/20 13:18:02;;;;;;;17.70;7.60;;;19.20;57.30;;;;;;5055015;28;20267;-82
2022/03/20 13:20:30;;;;;;;14.93;7.22;;;19.70;55.40;;;;;;5055550;28;20029;-82